sensor_id;sensor_type;location;lat;lon;timestamp;P1;durP1;ratioP1;P2;durP2;ratioP2
41512;SDS011;27244;59.940;30.280;2023-08-30T00:01:27;14.43;;;6.72;;
41512;SDS011;27244;59.940;30.280;2023-08-30T00:03:54;10.32;;;6.75;;
41512;SDS011;27244;59.940;30.280;2023-08-30T00:06:21;12.13;;;6.75;;
41512;SDS011;27244;59.940;30.280;2023-08-30T00:08:48;12.32;;;6.38;;
41512;SDS011;27244;59.940;30.280;2023-08-30T00:11:16;10.77;;;6.55;;
41512;SDS011;27244;59.940;30.280;2023-08-30T00:13:43;10.90;;;6.22;;
41512;SDS011;27244;59.940;30.280;2023-08-30T00:16:11;12.77;;;6.22;;
41512;SDS011;27244;59.940;30.280;2023-08-30T00:18:39;10.32;;;5.47;;
41512;SDS011;27244;59.940;30.280;2023-08-30T00:21:07;12.65;;;6.55;;
41512;SDS011;27244;59.940;30.280;2023-08-30T00:23:34;10.00;;;5.80;;
41512;SDS011;27244;59.940;30.280;2023-08-30T00:26:01;8.82;;;6.38;;
41512;SDS011;27244;59.940;30.280;2023-08-30T00:28:28;9.27;;;5.55;;
41512;SDS011;27244;59.940;30.280;2023-08-30T00:30:56;12.23;;;6.20;;
41512;SDS011;27244;59.940;30.280;2023-08-30T00:33:23;9.32;;;5.45;;
41512;SDS011;27244;59.940;30.280;2023-08-30T00:35:56;10.77;;;6.28;;
41512;SDS011;27244;59.940;30.280;2023-08-30T00:38:25;9.68;;;6.13;;
41512;SDS011;27244;59.940;30.280;2023-08-30T00:40:53;10.77;;;6.15;;
41512;SDS011;27244;59.940;30.280;2023-08-30T00:43:20;11.18;;;6.22;;
41512;SDS011;27244;59.940;30.280;2023-08-30T00:45:47;9.57;;;5.93;;
41512;SDS011;27244;59.940;30.280;2023-08-30T00:48:16;9.75;;;5.18;;
41512;SDS011;27244;59.940;30.280;2023-08-30T00:50:44;8.73;;;5.22;;
41512;SDS011;27244;59.940;30.280;2023-08-30T00:53:13;10.65;;;5.80;;
41512;SDS011;27244;59.940;30.280;2023-08-30T00:55:41;11.32;;;5.78;;
41512;SDS011;27244;59.940;30.280;2023-08-30T00:58:09;9.48;;;5.13;;
41512;SDS011;27244;59.940;30.280;2023-08-30T01:00:38;7.72;;;5.32;;
41512;SDS011;27244;59.940;30.280;2023-08-30T01:03:06;8.20;;;5.20;;
41512;SDS011;27244;59.940;30.280;2023-08-30T01:05:34;8.40;;;5.40;;
41512;SDS011;27244;59.940;30.280;2023-08-30T01:08:01;10.52;;;5.57;;
41512;SDS011;27244;59.940;30.280;2023-08-30T01:10:31;10.02;;;5.32;;
41512;SDS011;27244;59.940;30.280;2023-08-30T01:13:08;10.07;;;5.20;;
41512;SDS011;27244;59.940;30.280;2023-08-30T01:15:39;9.65;;;5.90;;
41512;SDS011;27244;59.940;30.280;2023-08-30T01:18:09;7.43;;;4.85;;
41512;SDS011;27244;59.940;30.280;2023-08-30T01:20:39;10.45;;;5.15;;
41512;SDS011;27244;59.940;30.280;2023-08-30T01:23:11;8.98;;;5.30;;
41512;SDS011;27244;59.940;30.280;2023-08-30T01:25:50;8.48;;;5.70;;
41512;SDS011;27244;59.940;30.280;2023-08-30T01:28:26;9.02;;;5.35;;
41512;SDS011;27244;59.940;30.280;2023-08-30T01:30:56;8.52;;;6.05;;
41512;SDS011;27244;59.940;30.280;2023-08-30T01:33:26;11.02;;;5.70;;
41512;SDS011;27244;59.940;30.280;2023-08-30T01:35:54;11.65;;;5.50;;
41512;SDS011;27244;59.940;30.280;2023-08-30T01:38:23;8.55;;;5.50;;
41512;SDS011;27244;59.940;30.280;2023-08-30T01:40:54;9.18;;;5.50;;
41512;SDS011;27244;59.940;30.280;2023-08-30T01:43:24;11.10;;;6.05;;
41512;SDS011;27244;59.940;30.280;2023-08-30T01:45:53;10.60;;;5.90;;
41512;SDS011;27244;59.940;30.280;2023-08-30T01:48:22;12.80;;;6.38;;
41512;SDS011;27244;59.940;30.280;2023-08-30T01:50:51;13.88;;;7.20;;
41512;SDS011;27244;59.940;30.280;2023-08-30T01:53:20;11.00;;;7.05;;
41512;SDS011;27244;59.940;30.280;2023-08-30T01:55:48;10.38;;;6.68;;
41512;SDS011;27244;59.940;30.280;2023-08-30T01:58:15;13.27;;;7.28;;
41512;SDS011;27244;59.940;30.280;2023-08-30T02:00:44;15.65;;;7.57;;
41512;SDS011;27244;59.940;30.280;2023-08-30T02:03:11;14.95;;;7.45;;
41512;SDS011;27244;59.940;30.280;2023-08-30T02:05:43;12.75;;;6.95;;
41512;SDS011;27244;59.940;30.280;2023-08-30T02:08:19;15.07;;;7.40;;
41512;SDS011;27244;59.940;30.280;2023-08-30T02:10:51;13.38;;;7.20;;
41512;SDS011;27244;59.940;30.280;2023-08-30T02:13:25;13.05;;;7.28;;
41512;SDS011;27244;59.940;30.280;2023-08-30T02:15:55;12.35;;;7.40;;
41512;SDS011;27244;59.940;30.280;2023-08-30T02:18:25;16.02;;;7.43;;
41512;SDS011;27244;59.940;30.280;2023-08-30T02:20:56;13.77;;;7.43;;
41512;SDS011;27244;59.940;30.280;2023-08-30T02:23:23;15.18;;;7.97;;
41512;SDS011;27244;59.940;30.280;2023-08-30T02:25:51;14.63;;;7.97;;
41512;SDS011;27244;59.940;30.280;2023-08-30T02:28:19;14.65;;;7.85;;
41512;SDS011;27244;59.940;30.280;2023-08-30T02:30:46;15.10;;;7.70;;
41512;SDS011;27244;59.940;30.280;2023-08-30T02:33:17;15.13;;;7.75;;
41512;SDS011;27244;59.940;30.280;2023-08-30T02:35:44;16.05;;;8.25;;
41512;SDS011;27244;59.940;30.280;2023-08-30T02:38:11;16.02;;;8.40;;
41512;SDS011;27244;59.940;30.280;2023-08-30T02:40:40;14.05;;;8.15;;
41512;SDS011;27244;59.940;30.280;2023-08-30T02:43:07;14.15;;;7.97;;
41512;SDS011;27244;59.940;30.280;2023-08-30T02:45:34;18.23;;;8.68;;
41512;SDS011;27244;59.940;30.280;2023-08-30T02:48:01;18.90;;;9.05;;
41512;SDS011;27244;59.940;30.280;2023-08-30T02:50:29;19.60;;;9.82;;
41512;SDS011;27244;59.940;30.280;2023-08-30T02:52:56;17.77;;;9.35;;
41512;SDS011;27244;59.940;30.280;2023-08-30T02:55:24;21.05;;;9.73;;
41512;SDS011;27244;59.940;30.280;2023-08-30T02:57:51;17.65;;;9.38;;
41512;SDS011;27244;59.940;30.280;2023-08-30T03:00:18;17.20;;;8.80;;
41512;SDS011;27244;59.940;30.280;2023-08-30T03:02:48;20.63;;;9.82;;
41512;SDS011;27244;59.940;30.280;2023-08-30T03:05:15;19.25;;;8.90;;
41512;SDS011;27244;59.940;30.280;2023-08-30T03:07:44;16.40;;;9.20;;
41512;SDS011;27244;59.940;30.280;2023-08-30T03:10:11;19.30;;;10.32;;
41512;SDS011;27244;59.940;30.280;2023-08-30T03:12:38;16.65;;;9.25;;
41512;SDS011;27244;59.940;30.280;2023-08-30T03:15:06;16.88;;;9.15;;
41512;SDS011;27244;59.940;30.280;2023-08-30T03:17:34;16.02;;;8.93;;
41512;SDS011;27244;59.940;30.280;2023-08-30T03:20:02;18.27;;;9.40;;
41512;SDS011;27244;59.940;30.280;2023-08-30T03:22:30;16.25;;;9.70;;
41512;SDS011;27244;59.940;30.280;2023-08-30T03:24:59;16.08;;;8.90;;
41512;SDS011;27244;59.940;30.280;2023-08-30T03:27:28;13.23;;;8.40;;
41512;SDS011;27244;59.940;30.280;2023-08-30T03:29:55;15.02;;;8.57;;
41512;SDS011;27244;59.940;30.280;2023-08-30T03:32:22;16.98;;;8.70;;
41512;SDS011;27244;59.940;30.280;2023-08-30T03:34:50;16.70;;;8.85;;
41512;SDS011;27244;59.940;30.280;2023-08-30T03:37:17;14.60;;;8.70;;
41512;SDS011;27244;59.940;30.280;2023-08-30T03:39:44;14.50;;;7.65;;
41512;SDS011;27244;59.940;30.280;2023-08-30T03:42:16;13.98;;;8.30;;
41512;SDS011;27244;59.940;30.280;2023-08-30T03:44:43;12.73;;;8.00;;
41512;SDS011;27244;59.940;30.280;2023-08-30T03:47:11;14.75;;;9.40;;
41512;SDS011;27244;59.940;30.280;2023-08-30T03:49:38;13.95;;;7.80;;
41512;SDS011;27244;59.940;30.280;2023-08-30T03:52:06;11.60;;;7.60;;
41512;SDS011;27244;59.940;30.280;2023-08-30T03:54:33;14.93;;;7.50;;
41512;SDS011;27244;59.940;30.280;2023-08-30T03:57:00;12.60;;;7.60;;
41512;SDS011;27244;59.940;30.280;2023-08-30T03:59:29;11.57;;;6.90;;
41512;SDS011;27244;59.940;30.280;2023-08-30T04:01:56;12.30;;;7.10;;
41512;SDS011;27244;59.940;30.280;2023-08-30T04:04:23;13.55;;;7.70;;
41512;SDS011;27244;59.940;30.280;2023-08-30T04:06:50;13.43;;;7.43;;
41512;SDS011;27244;59.940;30.280;2023-08-30T04:09:17;13.57;;;7.90;;
41512;SDS011;27244;59.940;30.280;2023-08-30T04:11:44;10.52;;;6.68;;
41512;SDS011;27244;59.940;30.280;2023-08-30T04:14:11;13.48;;;7.05;;
41512;SDS011;27244;59.940;30.280;2023-08-30T04:16:41;11.90;;;7.55;;
41512;SDS011;27244;59.940;30.280;2023-08-30T04:19:08;10.57;;;6.47;;
41512;SDS011;27244;59.940;30.280;2023-08-30T04:21:35;10.75;;;6.97;;
41512;SDS011;27244;59.940;30.280;2023-08-30T04:24:03;9.02;;;6.40;;
41512;SDS011;27244;59.940;30.280;2023-08-30T04:26:31;9.68;;;6.53;;
41512;SDS011;27244;59.940;30.280;2023-08-30T04:28:58;10.80;;;7.07;;
41512;SDS011;27244;59.940;30.280;2023-08-30T04:31:25;9.27;;;6.07;;
41512;SDS011;27244;59.940;30.280;2023-08-30T04:33:54;12.07;;;6.85;;
41512;SDS011;27244;59.940;30.280;2023-08-30T04:36:21;9.60;;;6.68;;
41512;SDS011;27244;59.940;30.280;2023-08-30T04:38:49;12.48;;;6.60;;
41512;SDS011;27244;59.940;30.280;2023-08-30T04:41:18;9.35;;;6.32;;
41512;SDS011;27244;59.940;30.280;2023-08-30T04:43:45;10.38;;;6.90;;
41512;SDS011;27244;59.940;30.280;2023-08-30T04:46:12;10.60;;;6.43;;
41512;SDS011;27244;59.940;30.280;2023-08-30T04:48:40;10.95;;;6.32;;
41512;SDS011;27244;59.940;30.280;2023-08-30T04:51:09;9.82;;;6.25;;
41512;SDS011;27244;59.940;30.280;2023-08-30T04:53:37;9.65;;;5.90;;
41512;SDS011;27244;59.940;30.280;2023-08-30T04:56:09;9.75;;;5.53;;
41512;SDS011;27244;59.940;30.280;2023-08-30T04:58:40;9.75;;;5.70;;
41512;SDS011;27244;59.940;30.280;2023-08-30T05:01:09;10.20;;;6.20;;
41512;SDS011;27244;59.940;30.280;2023-08-30T05:03:40;8.15;;;5.78;;
41512;SDS011;27244;59.940;30.280;2023-08-30T05:06:16;9.50;;;5.63;;
41512;SDS011;27244;59.940;30.280;2023-08-30T05:08:44;8.60;;;5.50;;
41512;SDS011;27244;59.940;30.280;2023-08-30T05:11:13;9.95;;;5.55;;
41512;SDS011;27244;59.940;30.280;2023-08-30T05:13:41;7.63;;;5.20;;
41512;SDS011;27244;59.940;30.280;2023-08-30T05:16:08;10.50;;;6.22;;
41512;SDS011;27244;59.940;30.280;2023-08-30T05:18:35;6.47;;;5.13;;
41512;SDS011;27244;59.940;30.280;2023-08-30T05:21:02;7.68;;;5.32;;
41512;SDS011;27244;59.940;30.280;2023-08-30T05:23:33;7.55;;;5.30;;
41512;SDS011;27244;59.940;30.280;2023-08-30T05:26:00;8.68;;;5.90;;
41512;SDS011;27244;59.940;30.280;2023-08-30T05:28:27;7.15;;;5.10;;
41512;SDS011;27244;59.940;30.280;2023-08-30T05:30:55;7.47;;;4.72;;
41512;SDS011;27244;59.940;30.280;2023-08-30T05:33:51;7.97;;;5.05;;
41512;SDS011;27244;59.940;30.280;2023-08-30T05:36:37;9.70;;;5.43;;
41512;SDS011;27244;59.940;30.280;2023-08-30T05:39:35;8.55;;;4.95;;
41512;SDS011;27244;59.940;30.280;2023-08-30T05:42:02;8.15;;;5.05;;
41512;SDS011;27244;59.940;30.280;2023-08-30T05:44:30;6.35;;;4.55;;
41512;SDS011;27244;59.940;30.280;2023-08-30T05:46:57;6.20;;;4.82;;
41512;SDS011;27244;59.940;30.280;2023-08-30T05:49:24;6.18;;;4.40;;
41512;SDS011;27244;59.940;30.280;2023-08-30T05:51:51;8.55;;;4.70;;
41512;SDS011;27244;59.940;30.280;2023-08-30T05:54:19;11.07;;;4.78;;
41512;SDS011;27244;59.940;30.280;2023-08-30T05:56:47;8.75;;;4.65;;
41512;SDS011;27244;59.940;30.280;2023-08-30T05:59:15;7.22;;;4.45;;
41512;SDS011;27244;59.940;30.280;2023-08-30T06:01:42;10.27;;;4.95;;
41512;SDS011;27244;59.940;30.280;2023-08-30T06:04:10;7.57;;;4.50;;
41512;SDS011;27244;59.940;30.280;2023-08-30T06:06:38;8.32;;;4.47;;
41512;SDS011;27244;59.940;30.280;2023-08-30T06:09:05;9.23;;;4.85;;
41512;SDS011;27244;59.940;30.280;2023-08-30T06:11:34;9.65;;;4.80;;
41512;SDS011;27244;59.940;30.280;2023-08-30T06:14:04;6.22;;;4.55;;
41512;SDS011;27244;59.940;30.280;2023-08-30T06:16:31;7.63;;;4.88;;
41512;SDS011;27244;59.940;30.280;2023-08-30T06:18:58;8.07;;;4.75;;
41512;SDS011;27244;59.940;30.280;2023-08-30T06:21:25;7.47;;;4.90;;
41512;SDS011;27244;59.940;30.280;2023-08-30T06:23:52;8.75;;;4.80;;
41512;SDS011;27244;59.940;30.280;2023-08-30T06:26:19;8.23;;;5.20;;
41512;SDS011;27244;59.940;30.280;2023-08-30T06:28:47;8.55;;;4.43;;
41512;SDS011;27244;59.940;30.280;2023-08-30T06:31:15;7.18;;;4.47;;
41512;SDS011;27244;59.940;30.280;2023-08-30T06:33:42;6.93;;;4.70;;
41512;SDS011;27244;59.940;30.280;2023-08-30T06:36:10;7.10;;;4.55;;
41512;SDS011;27244;59.940;30.280;2023-08-30T06:38:40;9.00;;;4.88;;
41512;SDS011;27244;59.940;30.280;2023-08-30T06:41:07;6.90;;;4.97;;
41512;SDS011;27244;59.940;30.280;2023-08-30T06:43:34;8.45;;;4.90;;
41512;SDS011;27244;59.940;30.280;2023-08-30T06:46:01;6.10;;;5.10;;
41512;SDS011;27244;59.940;30.280;2023-08-30T06:48:30;8.02;;;5.13;;
41512;SDS011;27244;59.940;30.280;2023-08-30T06:50:57;9.80;;;5.22;;
41512;SDS011;27244;59.940;30.280;2023-08-30T06:53:25;7.05;;;4.95;;
41512;SDS011;27244;59.940;30.280;2023-08-30T06:55:56;10.23;;;5.43;;
41512;SDS011;27244;59.940;30.280;2023-08-30T06:58:24;7.82;;;4.90;;
41512;SDS011;27244;59.940;30.280;2023-08-30T07:00:51;8.57;;;5.32;;
41512;SDS011;27244;59.940;30.280;2023-08-30T07:03:18;8.48;;;5.30;;
41512;SDS011;27244;59.940;30.280;2023-08-30T07:05:47;8.50;;;5.20;;
41512;SDS011;27244;59.940;30.280;2023-08-30T07:08:14;9.93;;;5.22;;
41512;SDS011;27244;59.940;30.280;2023-08-30T07:10:42;8.38;;;4.68;;
41512;SDS011;27244;59.940;30.280;2023-08-30T07:13:09;8.27;;;5.00;;
41512;SDS011;27244;59.940;30.280;2023-08-30T07:15:38;12.07;;;5.22;;
41512;SDS011;27244;59.940;30.280;2023-08-30T07:18:06;8.82;;;4.90;;
41512;SDS011;27244;59.940;30.280;2023-08-30T07:20:33;12.07;;;5.90;;
41512;SDS011;27244;59.940;30.280;2023-08-30T07:23:02;9.60;;;5.55;;
41512;SDS011;27244;59.940;30.280;2023-08-30T07:25:29;6.22;;;4.32;;
41512;SDS011;27244;59.940;30.280;2023-08-30T07:27:58;8.30;;;5.05;;
41512;SDS011;27244;59.940;30.280;2023-08-30T07:30:26;10.43;;;4.80;;
41512;SDS011;27244;59.940;30.280;2023-08-30T07:32:53;9.27;;;4.82;;
41512;SDS011;27244;59.940;30.280;2023-08-30T07:35:20;7.38;;;4.45;;
41512;SDS011;27244;59.940;30.280;2023-08-30T07:37:47;9.38;;;5.05;;
41512;SDS011;27244;59.940;30.280;2023-08-30T07:40:16;10.85;;;5.22;;
41512;SDS011;27244;59.940;30.280;2023-08-30T07:42:43;8.02;;;4.55;;
41512;SDS011;27244;59.940;30.280;2023-08-30T07:45:10;14.43;;;5.47;;
41512;SDS011;27244;59.940;30.280;2023-08-30T07:47:37;11.55;;;5.78;;
41512;SDS011;27244;59.940;30.280;2023-08-30T07:50:05;8.35;;;5.28;;
41512;SDS011;27244;59.940;30.280;2023-08-30T07:52:33;13.32;;;5.72;;
41512;SDS011;27244;59.940;30.280;2023-08-30T07:55:00;13.02;;;5.68;;
41512;SDS011;27244;59.940;30.280;2023-08-30T07:57:29;10.73;;;6.18;;
41512;SDS011;27244;59.940;30.280;2023-08-30T07:59:56;11.48;;;5.50;;
41512;SDS011;27244;59.940;30.280;2023-08-30T08:02:23;29.10;;;10.70;;
41512;SDS011;27244;59.940;30.280;2023-08-30T08:04:50;20.55;;;8.70;;
41512;SDS011;27244;59.940;30.280;2023-08-30T08:07:17;12.32;;;6.22;;
41512;SDS011;27244;59.940;30.280;2023-08-30T08:09:44;11.05;;;6.10;;
41512;SDS011;27244;59.940;30.280;2023-08-30T08:12:11;9.68;;;5.57;;
41512;SDS011;27244;59.940;30.280;2023-08-30T08:14:40;12.93;;;5.07;;
41512;SDS011;27244;59.940;30.280;2023-08-30T08:17:07;10.82;;;5.38;;
41512;SDS011;27244;59.940;30.280;2023-08-30T08:19:34;9.07;;;5.00;;
41512;SDS011;27244;59.940;30.280;2023-08-30T08:22:05;10.80;;;5.38;;
41512;SDS011;27244;59.940;30.280;2023-08-30T08:24:32;8.05;;;4.75;;
41512;SDS011;27244;59.940;30.280;2023-08-30T08:26:59;12.90;;;5.30;;
41512;SDS011;27244;59.940;30.280;2023-08-30T08:29:26;9.35;;;4.90;;
41512;SDS011;27244;59.940;30.280;2023-08-30T08:31:55;10.02;;;5.60;;
41512;SDS011;27244;59.940;30.280;2023-08-30T08:34:22;11.98;;;4.63;;
41512;SDS011;27244;59.940;30.280;2023-08-30T08:36:49;9.55;;;4.88;;
41512;SDS011;27244;59.940;30.280;2023-08-30T08:39:16;9.00;;;4.65;;
41512;SDS011;27244;59.940;30.280;2023-08-30T08:41:44;9.00;;;4.50;;
41512;SDS011;27244;59.940;30.280;2023-08-30T08:44:12;9.30;;;4.85;;
41512;SDS011;27244;59.940;30.280;2023-08-30T08:46:40;7.57;;;4.35;;
41512;SDS011;27244;59.940;30.280;2023-08-30T08:49:10;7.43;;;4.25;;
41512;SDS011;27244;59.940;30.280;2023-08-30T08:51:38;8.35;;;4.38;;
41512;SDS011;27244;59.940;30.280;2023-08-30T08:54:07;8.85;;;4.40;;
41512;SDS011;27244;59.940;30.280;2023-08-30T08:56:35;10.20;;;4.47;;
41512;SDS011;27244;59.940;30.280;2023-08-30T08:59:03;6.82;;;4.32;;
41512;SDS011;27244;59.940;30.280;2023-08-30T09:01:31;8.70;;;3.47;;
41512;SDS011;27244;59.940;30.280;2023-08-30T09:04:01;10.82;;;4.63;;
41512;SDS011;27244;59.940;30.280;2023-08-30T09:06:32;10.05;;;4.47;;
41512;SDS011;27244;59.940;30.280;2023-08-30T09:09:00;11.02;;;4.30;;
41512;SDS011;27244;59.940;30.280;2023-08-30T09:11:29;8.07;;;4.32;;
41512;SDS011;27244;59.940;30.280;2023-08-30T09:13:56;10.98;;;4.22;;
41512;SDS011;27244;59.940;30.280;2023-08-30T09:16:23;7.80;;;4.07;;
41512;SDS011;27244;59.940;30.280;2023-08-30T09:18:57;9.93;;;4.70;;
41512;SDS011;27244;59.940;30.280;2023-08-30T09:21:25;9.45;;;4.40;;
41512;SDS011;27244;59.940;30.280;2023-08-30T09:24:00;10.13;;;4.78;;
41512;SDS011;27244;59.940;30.280;2023-08-30T09:26:29;9.38;;;4.50;;
41512;SDS011;27244;59.940;30.280;2023-08-30T09:29:01;10.15;;;3.97;;
41512;SDS011;27244;59.940;30.280;2023-08-30T09:31:32;10.27;;;4.80;;
41512;SDS011;27244;59.940;30.280;2023-08-30T09:34:00;6.60;;;3.47;;
41512;SDS011;27244;59.940;30.280;2023-08-30T09:36:32;9.35;;;4.10;;
41512;SDS011;27244;59.940;30.280;2023-08-30T09:39:04;7.57;;;3.60;;
41512;SDS011;27244;59.940;30.280;2023-08-30T09:41:31;8.85;;;4.28;;
41512;SDS011;27244;59.940;30.280;2023-08-30T09:43:59;8.52;;;4.55;;
41512;SDS011;27244;59.940;30.280;2023-08-30T09:46:26;7.47;;;4.25;;
41512;SDS011;27244;59.940;30.280;2023-08-30T09:48:54;9.80;;;4.65;;
41512;SDS011;27244;59.940;30.280;2023-08-30T09:51:22;10.32;;;4.30;;
41512;SDS011;27244;59.940;30.280;2023-08-30T09:53:53;7.53;;;3.97;;
41512;SDS011;27244;59.940;30.280;2023-08-30T09:56:26;6.45;;;3.85;;
41512;SDS011;27244;59.940;30.280;2023-08-30T09:58:54;10.23;;;3.85;;
41512;SDS011;27244;59.940;30.280;2023-08-30T10:01:25;8.68;;;4.60;;
41512;SDS011;27244;59.940;30.280;2023-08-30T10:03:52;10.57;;;3.72;;
41512;SDS011;27244;59.940;30.280;2023-08-30T10:06:21;9.60;;;4.43;;
41512;SDS011;27244;59.940;30.280;2023-08-30T10:08:51;9.88;;;4.22;;
41512;SDS011;27244;59.940;30.280;2023-08-30T10:11:19;10.75;;;4.15;;
41512;SDS011;27244;59.940;30.280;2023-08-30T10:13:48;8.10;;;3.88;;
41512;SDS011;27244;59.940;30.280;2023-08-30T10:16:19;7.30;;;3.90;;
41512;SDS011;27244;59.940;30.280;2023-08-30T10:18:47;14.50;;;3.83;;
41512;SDS011;27244;59.940;30.280;2023-08-30T10:21:17;8.57;;;3.70;;
41512;SDS011;27244;59.940;30.280;2023-08-30T10:23:45;8.55;;;3.58;;
41512;SDS011;27244;59.940;30.280;2023-08-30T10:26:15;6.97;;;3.33;;
41512;SDS011;27244;59.940;30.280;2023-08-30T10:28:44;7.63;;;3.50;;
41512;SDS011;27244;59.940;30.280;2023-08-30T10:31:13;6.35;;;3.03;;
41512;SDS011;27244;59.940;30.280;2023-08-30T10:33:46;6.50;;;3.45;;
41512;SDS011;27244;59.940;30.280;2023-08-30T10:36:20;8.73;;;3.53;;
41512;SDS011;27244;59.940;30.280;2023-08-30T10:38:48;6.18;;;3.50;;
41512;SDS011;27244;59.940;30.280;2023-08-30T10:41:19;8.65;;;3.63;;
41512;SDS011;27244;59.940;30.280;2023-08-30T10:43:51;10.68;;;3.80;;
41512;SDS011;27244;59.940;30.280;2023-08-30T10:46:30;5.68;;;2.78;;
41512;SDS011;27244;59.940;30.280;2023-08-30T10:49:08;6.97;;;3.03;;
41512;SDS011;27244;59.940;30.280;2023-08-30T10:51:37;5.88;;;3.30;;
41512;SDS011;27244;59.940;30.280;2023-08-30T10:54:11;4.65;;;3.15;;
41512;SDS011;27244;59.940;30.280;2023-08-30T10:56:46;7.43;;;3.53;;
41512;SDS011;27244;59.940;30.280;2023-08-30T10:59:17;5.35;;;3.38;;
41512;SDS011;27244;59.940;30.280;2023-08-30T11:01:46;6.15;;;4.07;;
41512;SDS011;27244;59.940;30.280;2023-08-30T11:04:14;8.15;;;3.88;;
41512;SDS011;27244;59.940;30.280;2023-08-30T11:06:46;10.65;;;3.30;;
41512;SDS011;27244;59.940;30.280;2023-08-30T11:09:15;6.38;;;3.42;;
41512;SDS011;27244;59.940;30.280;2023-08-30T11:11:44;5.78;;;3.40;;
41512;SDS011;27244;59.940;30.280;2023-08-30T11:14:12;5.93;;;3.33;;
41512;SDS011;27244;59.940;30.280;2023-08-30T11:16:40;7.15;;;3.63;;
41512;SDS011;27244;59.940;30.280;2023-08-30T11:19:09;7.47;;;4.30;;
41512;SDS011;27244;59.940;30.280;2023-08-30T11:21:38;5.60;;;2.93;;
41512;SDS011;27244;59.940;30.280;2023-08-30T11:24:06;5.72;;;3.55;;
41512;SDS011;27244;59.940;30.280;2023-08-30T11:26:34;5.72;;;3.10;;
41512;SDS011;27244;59.940;30.280;2023-08-30T11:29:05;6.72;;;3.10;;
41512;SDS011;27244;59.940;30.280;2023-08-30T11:31:32;7.03;;;3.35;;
41512;SDS011;27244;59.940;30.280;2023-08-30T11:34:00;5.90;;;2.88;;
41512;SDS011;27244;59.940;30.280;2023-08-30T11:36:29;6.72;;;3.55;;
41512;SDS011;27244;59.940;30.280;2023-08-30T11:38:57;4.30;;;2.58;;
41512;SDS011;27244;59.940;30.280;2023-08-30T11:41:25;7.93;;;3.17;;
41512;SDS011;27244;59.940;30.280;2023-08-30T11:43:53;4.35;;;2.90;;
41512;SDS011;27244;59.940;30.280;2023-08-30T11:46:21;4.30;;;2.42;;
41512;SDS011;27244;59.940;30.280;2023-08-30T11:48:48;4.47;;;2.85;;
41512;SDS011;27244;59.940;30.280;2023-08-30T11:51:17;4.63;;;2.92;;
41512;SDS011;27244;59.940;30.280;2023-08-30T11:53:46;7.43;;;2.92;;
41512;SDS011;27244;59.940;30.280;2023-08-30T11:56:29;6.57;;;3.08;;
41512;SDS011;27244;59.940;30.280;2023-08-30T11:59:24;5.20;;;3.30;;
41512;SDS011;27244;59.940;30.280;2023-08-30T12:02:11;4.65;;;3.00;;
41512;SDS011;27244;59.940;30.280;2023-08-30T12:05:43;5.75;;;2.85;;
41512;SDS011;27244;59.940;30.280;2023-08-30T12:08:05;6.18;;;2.45;;
41512;SDS011;27244;59.940;30.280;2023-08-30T12:10:46;5.65;;;2.90;;
41512;SDS011;27244;59.940;30.280;2023-08-30T12:13:49;3.88;;;2.53;;
41512;SDS011;27244;59.940;30.280;2023-08-30T12:16:43;3.38;;;2.40;;
41512;SDS011;27244;59.940;30.280;2023-08-30T12:19:54;4.70;;;2.88;;
41512;SDS011;27244;59.940;30.280;2023-08-30T12:22:38;5.55;;;2.90;;
41512;SDS011;27244;59.940;30.280;2023-08-30T12:41:24;3.40;;;2.08;;
41512;SDS011;27244;59.940;30.280;2023-08-30T12:44:32;4.57;;;1.85;;
41512;SDS011;27244;59.940;30.280;2023-08-30T12:47:05;5.60;;;2.27;;
41512;SDS011;27244;59.940;30.280;2023-08-30T12:50:29;4.80;;;2.47;;
41512;SDS011;27244;59.940;30.280;2023-08-30T12:54:33;3.08;;;2.20;;
41512;SDS011;27244;59.940;30.280;2023-08-30T12:57:10;3.08;;;2.10;;
41512;SDS011;27244;59.940;30.280;2023-08-30T13:11:39;4.47;;;2.05;;
41512;SDS011;27244;59.940;30.280;2023-08-30T13:14:36;3.75;;;2.17;;
41512;SDS011;27244;59.940;30.280;2023-08-30T13:24:39;3.20;;;1.80;;
41512;SDS011;27244;59.940;30.280;2023-08-30T13:30:49;3.45;;;1.80;;
41512;SDS011;27244;59.940;30.280;2023-08-30T13:33:25;3.58;;;2.00;;
41512;SDS011;27244;59.940;30.280;2023-08-30T13:36:46;3.80;;;1.63;;
41512;SDS011;27244;59.940;30.280;2023-08-30T13:39:18;3.45;;;1.85;;
41512;SDS011;27244;59.940;30.280;2023-08-30T13:42:13;4.20;;;1.50;;
41512;SDS011;27244;59.940;30.280;2023-08-30T13:44:50;6.32;;;2.13;;
41512;SDS011;27244;59.940;30.280;2023-08-30T13:47:38;3.70;;;2.10;;
41512;SDS011;27244;59.940;30.280;2023-08-30T13:50:12;5.00;;;2.35;;
41512;SDS011;27244;59.940;30.280;2023-08-30T13:52:42;2.40;;;1.60;;
41512;SDS011;27244;59.940;30.280;2023-08-30T13:55:55;3.78;;;1.95;;
41512;SDS011;27244;59.940;30.280;2023-08-30T13:58:23;3.67;;;2.20;;
41512;SDS011;27244;59.940;30.280;2023-08-30T14:01:12;4.65;;;2.30;;
41512;SDS011;27244;59.940;30.280;2023-08-30T14:06:47;3.53;;;2.08;;
41512;SDS011;27244;59.940;30.280;2023-08-30T14:09:29;7.80;;;2.45;;
41512;SDS011;27244;59.940;30.280;2023-08-30T14:12:24;6.40;;;2.28;;
41512;SDS011;27244;59.940;30.280;2023-08-30T14:15:30;3.65;;;2.47;;
41512;SDS011;27244;59.940;30.280;2023-08-30T14:18:30;3.90;;;2.22;;
41512;SDS011;27244;59.940;30.280;2023-08-30T14:24:48;2.92;;;1.98;;
41512;SDS011;27244;59.940;30.280;2023-08-30T14:27:16;3.22;;;2.00;;
41512;SDS011;27244;59.940;30.280;2023-08-30T14:34:45;3.20;;;2.28;;
41512;SDS011;27244;59.940;30.280;2023-08-30T14:37:15;2.72;;;2.13;;
41512;SDS011;27244;59.940;30.280;2023-08-30T14:46:52;3.47;;;2.10;;
41512;SDS011;27244;59.940;30.280;2023-08-30T14:52:29;4.40;;;2.30;;
41512;SDS011;27244;59.940;30.280;2023-08-30T14:55:00;3.65;;;2.47;;
41512;SDS011;27244;59.940;30.280;2023-08-30T14:57:45;5.88;;;2.50;;
41512;SDS011;27244;59.940;30.280;2023-08-30T15:00:20;3.75;;;2.30;;
41512;SDS011;27244;59.940;30.280;2023-08-30T16:55:39;5.68;;;3.17;;
41512;SDS011;27244;59.940;30.280;2023-08-30T16:58:09;4.40;;;3.05;;
41512;SDS011;27244;59.940;30.280;2023-08-30T17:00:42;4.20;;;3.20;;
41512;SDS011;27244;59.940;30.280;2023-08-30T17:06:10;4.45;;;2.80;;
41512;SDS011;27244;59.940;30.280;2023-08-30T17:08:41;4.38;;;3.20;;
41512;SDS011;27244;59.940;30.280;2023-08-30T17:11:29;7.50;;;3.42;;
41512;SDS011;27244;59.940;30.280;2023-08-30T17:14:15;7.82;;;3.17;;
41512;SDS011;27244;59.940;30.280;2023-08-30T17:17:09;4.30;;;3.47;;
41512;SDS011;27244;59.940;30.280;2023-08-30T17:23:09;5.13;;;3.10;;
41512;SDS011;27244;59.940;30.280;2023-08-30T17:26:00;5.82;;;3.40;;
41512;SDS011;27244;59.940;30.280;2023-08-30T17:28:28;5.35;;;3.17;;
41512;SDS011;27244;59.940;30.280;2023-08-30T17:30:56;4.43;;;3.00;;
41512;SDS011;27244;59.940;30.280;2023-08-30T17:33:23;4.55;;;3.20;;
41512;SDS011;27244;59.940;30.280;2023-08-30T17:35:52;6.28;;;3.17;;
41512;SDS011;27244;59.940;30.280;2023-08-30T17:38:20;3.42;;;3.10;;
41512;SDS011;27244;59.940;30.280;2023-08-30T17:40:47;5.03;;;3.42;;
41512;SDS011;27244;59.940;30.280;2023-08-30T17:43:18;4.38;;;2.80;;
41512;SDS011;27244;59.940;30.280;2023-08-30T17:45:49;6.45;;;3.15;;
41512;SDS011;27244;59.940;30.280;2023-08-30T17:48:38;11.43;;;3.75;;
41512;SDS011;27244;59.940;30.280;2023-08-30T17:51:09;5.32;;;3.38;;
41512;SDS011;27244;59.940;30.280;2023-08-30T17:53:37;7.40;;;3.13;;